createdAt,value
2019-04-14T00:00:11.945Z,72.92
2019-04-14T00:02:51.224Z,73.00
2019-04-14T00:05:28.209Z,72.25
2019-04-14T00:08:06.671Z,76.95
2019-04-14T00:10:44.241Z,76.30
2019-04-14T00:13:20.242Z,73.20
2019-04-14T00:15:56.618Z,73.97
2019-04-14T00:18:33.714Z,72.62
2019-04-14T00:21:10.786Z,71.50
2019-04-14T00:23:47.853Z,73.52
2019-04-14T00:26:29.560Z,74.12
2019-04-14T00:29:06.796Z,75.08
2019-04-14T00:31:43.332Z,72.67
2019-04-14T00:34:20.899Z,71.40
2019-04-14T00:36:58.842Z,71.87
2019-04-14T00:39:36.311Z,70.30
2019-04-14T00:42:25.871Z,72.53
2019-04-14T00:45:04.864Z,71.35
2019-04-14T00:47:51.688Z,73.30
2019-04-14T00:50:21.065Z,68.77
2019-04-14T00:52:57.141Z,70.08
2019-04-14T00:55:33.537Z,67.92
2019-04-14T00:58:10.366Z,68.25
2019-04-14T01:00:47.328Z,68.40
2019-04-14T01:03:24.431Z,68.85
2019-04-14T01:06:01.189Z,67.72
2019-04-14T01:08:38.101Z,68.55
2019-04-14T01:11:14.098Z,69.17
2019-04-14T01:13:50.832Z,69.58
2019-04-14T01:16:28.058Z,65.45
2019-04-14T01:19:04.778Z,69.10
2019-04-14T01:21:41.306Z,65.33
2019-04-14T01:24:18.469Z,66.67
2019-04-14T01:26:55.019Z,64.92
2019-04-14T01:29:31.974Z,75.72
2019-04-14T01:32:08.811Z,65.13
2019-04-14T01:34:45.541Z,65.30
2019-04-14T01:37:22.510Z,63.90
2019-04-14T01:39:58.837Z,65.37
2019-04-14T01:42:35.544Z,64.62
2019-04-14T01:45:14.200Z,66.02
2019-04-14T01:47:51.070Z,62.38
2019-04-14T01:53:33.544Z,63.17
2019-04-14T01:56:20.862Z,62.40
2019-04-14T01:59:04.587Z,62.43
2019-04-14T02:01:45.669Z,61.35
2019-04-14T02:04:22.397Z,63.98
2019-04-14T02:06:59.501Z,62.65
2019-04-14T02:09:35.777Z,62.67
2019-04-14T02:12:12.780Z,60.92
2019-04-14T02:14:49.513Z,61.25
2019-04-14T02:17:26.383Z,61.70
2019-04-14T02:20:03.350Z,60.10
2019-04-14T02:22:39.810Z,60.60
2019-04-14T02:25:16.564Z,58.85
2019-04-14T02:27:53.589Z,59.23
2019-04-14T02:30:36.632Z,60.35
2019-04-14T02:36:21.917Z,59.05
2019-04-14T02:41:27.866Z,62.10
2019-04-14T02:44:07.459Z,61.20
2019-04-14T02:46:47.944Z,60.67
2019-04-14T02:49:19.498Z,61.95
2019-04-14T02:51:56.353Z,58.98
2019-04-14T02:54:43.572Z,59.15
2019-04-14T02:57:26.821Z,60.17
2019-04-14T02:59:51.256Z,58.90
2019-04-14T03:02:30.474Z,58.98
2019-04-14T03:05:05.951Z,58.50
2019-04-14T03:07:46.720Z,56.95
2019-04-14T03:13:08.312Z,58.60
2019-04-14T03:15:39.638Z,56.40
2019-04-14T03:21:13.782Z,56.10
2019-04-14T03:23:57.997Z,57.85
2019-04-14T03:26:56.162Z,57.62
2019-04-14T03:29:43.288Z,55.85
2019-04-14T03:40:01.806Z,57.33
2019-04-14T03:48:16.832Z,58.90
2019-04-14T03:53:16.291Z,57.08
2019-04-14T03:55:55.353Z,57.90
2019-04-14T03:58:27.036Z,55.65
2019-04-14T04:01:04.043Z,56.18
2019-04-14T04:03:41.339Z,55.08
2019-04-14T04:06:18.120Z,56.48
2019-04-14T04:08:55.208Z,54.75
2019-04-14T04:11:32.277Z,55.98
2019-04-14T04:14:09.523Z,54.35
2019-04-14T04:16:55.055Z,54.90
2019-04-14T04:19:47.650Z,54.30
2019-04-14T04:22:28.194Z,54.65
2019-04-14T04:25:11.644Z,53.20
2019-04-14T04:28:05.985Z,54.60
2019-04-14T04:30:53.691Z,52.95
2019-04-14T04:33:31.048Z,51.90
2019-04-14T04:36:09.346Z,54.38
2019-04-14T04:39:01.877Z,52.93
2019-04-14T04:41:38.848Z,53.38
2019-04-14T04:44:15.795Z,53.23
2019-04-14T04:46:52.691Z,53.45
2019-04-14T04:49:30.529Z,55.05
2019-04-14T04:52:06.331Z,54.25
2019-04-14T04:54:42.852Z,55.03
2019-04-14T04:57:19.826Z,54.50
2019-04-14T04:59:56.130Z,52.48
2019-04-14T05:02:33.168Z,51.37
2019-04-14T05:05:45.089Z,51.02
2019-04-14T05:08:21.704Z,53.17
2019-04-14T05:10:59.097Z,52.75
2019-04-14T05:13:36.460Z,52.43
2019-04-14T05:16:12.775Z,51.63
2019-04-14T05:18:48.734Z,50.95
2019-04-14T05:21:25.547Z,50.52
2019-04-14T05:24:02.734Z,49.08
2019-04-14T05:26:39.458Z,47.85
2019-04-14T05:29:15.281Z,48.38
2019-04-14T05:31:51.207Z,46.30
2019-04-14T05:34:28.261Z,46.60
2019-04-14T05:37:05.002Z,45.73
2019-04-14T05:39:41.821Z,45.40
2019-04-14T05:42:20.238Z,44.95
2019-04-14T05:44:55.805Z,42.65
2019-04-14T05:47:32.609Z,43.92
2019-04-14T05:50:09.531Z,49.73
2019-04-14T05:52:45.413Z,49.75
2019-04-14T05:55:22.012Z,49.63
2019-04-14T05:57:59.099Z,42.08
2019-04-14T06:00:36.364Z,42.33
2019-04-14T06:03:12.441Z,40.25
2019-04-14T06:05:48.206Z,39.00
2019-04-14T06:08:23.998Z,38.35
2019-04-14T06:10:59.789Z,37.35
2019-04-14T06:13:35.608Z,38.23
2019-04-14T06:16:11.465Z,38.65
2019-04-14T06:18:47.322Z,37.00
2019-04-14T06:21:23.151Z,41.85
2019-04-14T06:23:58.935Z,35.88
2019-04-14T06:26:34.739Z,35.30
2019-04-14T06:29:11.562Z,34.65
2019-04-14T06:32:01.038Z,34.00
2019-04-14T06:34:38.531Z,36.53
2019-04-14T06:37:22.090Z,36.48
2019-04-14T06:39:59.556Z,31.07
2019-04-14T06:42:35.408Z,33.55
2019-04-14T06:45:12.285Z,33.02
2019-04-14T06:47:49.255Z,32.25
2019-04-14T06:50:25.113Z,34.45
2019-04-14T06:53:00.977Z,32.73
2019-04-14T06:55:36.821Z,24.60
2019-04-14T06:58:12.683Z,26.40
2019-04-14T07:00:48.530Z,27.05
2019-04-14T07:03:24.379Z,25.55
2019-04-14T07:06:00.299Z,33.45
2019-04-14T07:08:36.498Z,26.85
2019-04-14T07:11:12.366Z,25.65
2019-04-14T07:13:48.341Z,23.95
2019-04-14T07:16:24.265Z,43.95
2019-04-14T07:19:00.744Z,23.45
2019-04-14T07:21:36.598Z,36.75
2019-04-14T07:24:12.452Z,26.20
2019-04-14T07:26:48.266Z,35.15
2019-04-14T07:29:25.587Z,25.17
2019-04-14T07:32:19.094Z,33.15
2019-04-14T07:34:56.419Z,24.90
2019-04-14T07:37:36.586Z,26.77
2019-04-14T07:40:30.200Z,26.57
2019-04-14T07:43:07.531Z,25.15
2019-04-14T07:45:44.953Z,24.57
2019-04-14T07:48:25.088Z,24.02
2019-04-14T07:51:18.674Z,24.77
2019-04-14T07:53:58.678Z,22.95
2019-04-14T07:56:41.742Z,24.92
2019-04-14T07:59:19.076Z,24.67
2019-04-14T08:01:56.400Z,23.77
2019-04-14T08:04:33.734Z,25.62
2019-04-14T08:07:09.535Z,24.30
2019-04-14T08:09:45.319Z,24.60
2019-04-14T08:12:21.108Z,24.12
2019-04-14T08:14:56.900Z,25.62
2019-04-14T08:17:32.706Z,24.67
2019-04-14T08:20:08.940Z,25.20
2019-04-14T08:22:44.695Z,24.72
2019-04-14T08:25:20.434Z,26.05
2019-04-14T08:27:56.291Z,24.02
2019-04-14T08:30:32.751Z,24.37
2019-04-14T08:33:08.678Z,24.23
2019-04-14T08:35:44.440Z,25.05
2019-04-14T08:38:20.228Z,23.57
2019-04-14T08:40:55.974Z,23.87
2019-04-14T08:43:51.586Z,23.47
2019-04-14T08:46:29.092Z,22.95
2019-04-14T08:49:06.618Z,22.27
2019-04-14T08:51:43.963Z,22.25
2019-04-14T08:54:24.931Z,23.18
2019-04-14T08:57:02.345Z,22.63
2019-04-14T08:59:42.422Z,23.35
2019-04-14T09:02:29.202Z,22.65
2019-04-14T09:05:11.189Z,22.50
2019-04-14T09:07:51.557Z,21.27
2019-04-14T09:10:28.939Z,23.05
2019-04-14T09:13:04.801Z,22.02
2019-04-14T09:15:40.655Z,22.32
2019-04-14T09:18:16.498Z,21.40
2019-04-14T09:20:52.878Z,21.48
2019-04-14T09:23:28.936Z,21.48
2019-04-14T09:26:04.893Z,20.32
2019-04-14T09:28:41.833Z,20.72
2019-04-14T09:31:18.213Z,20.35
2019-04-14T09:33:54.016Z,20.17
2019-04-14T09:36:29.829Z,18.70
2019-04-14T09:39:07.194Z,17.10
2019-04-14T09:41:44.549Z,17.17
2019-04-14T09:44:20.421Z,16.93
2019-04-14T09:46:56.292Z,16.05
2019-04-14T09:49:32.511Z,17.10
2019-04-14T09:52:08.533Z,16.80
2019-04-14T09:54:44.322Z,17.55
2019-04-14T09:57:20.130Z,18.02
2019-04-14T10:00:00.388Z,16.65
2019-04-14T10:02:37.784Z,17.20
2019-04-14T10:05:13.581Z,17.00
2019-04-14T10:07:50.365Z,17.52
2019-04-14T10:10:26.243Z,17.55
2019-04-14T10:13:02.110Z,17.82
2019-04-14T10:15:37.915Z,17.10
2019-04-14T10:18:13.710Z,18.30
2019-04-14T10:20:49.524Z,16.57
2019-04-14T10:23:25.289Z,17.48
2019-04-14T10:26:01.060Z,16.80
2019-04-14T10:28:36.901Z,18.00
2019-04-14T10:31:12.694Z,17.27
2019-04-14T10:33:48.605Z,19.10
2019-04-14T10:36:24.424Z,17.73
2019-04-14T10:39:00.183Z,18.05
2019-04-14T10:41:37.478Z,18.20
2019-04-14T10:44:13.411Z,17.92
2019-04-14T10:46:49.258Z,17.82
2019-04-14T10:49:25.528Z,17.35
2019-04-14T10:52:01.489Z,17.32
2019-04-14T10:54:37.434Z,18.02
2019-04-14T10:57:13.388Z,16.82
2019-04-14T10:59:49.253Z,18.00
2019-04-14T11:02:25.098Z,16.75
2019-04-14T11:05:00.933Z,16.90
2019-04-14T11:07:37.111Z,16.75
2019-04-14T11:10:13.276Z,16.48
2019-04-14T11:12:49.282Z,17.62
2019-04-14T11:15:25.288Z,16.60
2019-04-14T11:18:01.255Z,16.05
2019-04-14T11:20:37.053Z,17.20
2019-04-14T11:23:12.815Z,15.88
2019-04-14T11:25:48.740Z,16.17
2019-04-14T11:28:24.503Z,16.27
2019-04-14T11:31:00.307Z,16.97
2019-04-14T11:33:53.762Z,15.35
2019-04-14T11:36:40.043Z,15.08
2019-04-14T11:39:22.344Z,16.45
2019-04-14T11:41:58.131Z,15.53
2019-04-14T11:44:33.878Z,16.07
2019-04-14T11:47:09.921Z,16.05
2019-04-14T11:49:45.898Z,15.95
2019-04-14T11:52:21.655Z,16.07
2019-04-14T11:54:57.433Z,17.30
2019-04-14T11:57:33.235Z,16.60
2019-04-14T12:00:26.694Z,16.85
2019-04-14T12:03:22.148Z,15.80
2019-04-14T12:06:17.368Z,16.27
2019-04-14T12:09:01.004Z,16.32
2019-04-14T12:11:38.303Z,17.45
2019-04-14T12:14:14.095Z,15.60
2019-04-14T12:16:49.937Z,16.55
2019-04-14T12:19:25.725Z,15.60
2019-04-14T12:22:08.074Z,15.43
2019-04-14T12:24:38.980Z,15.43
2019-04-14T12:27:14.821Z,15.40
2019-04-14T12:29:50.688Z,15.13
2019-04-14T12:32:27.044Z,14.43
2019-04-14T12:35:02.878Z,14.58
2019-04-14T12:37:38.766Z,13.60
2019-04-14T12:40:14.859Z,14.17
2019-04-14T12:42:58.311Z,14.40
2019-04-14T12:45:47.518Z,14.80
2019-04-14T12:48:40.280Z,14.23
2019-04-14T12:51:20.381Z,14.15
2019-04-14T12:53:55.246Z,13.78
2019-04-14T12:56:31.098Z,12.88
2019-04-14T12:59:08.499Z,12.15
2019-04-14T13:01:48.951Z,13.15
2019-04-14T13:04:24.815Z,12.95
2019-04-14T13:07:00.676Z,12.65
2019-04-14T13:09:36.512Z,12.98
2019-04-14T13:12:12.379Z,12.88
2019-04-14T13:14:48.223Z,12.93
2019-04-14T13:17:24.186Z,12.68
2019-04-14T13:20:00.026Z,13.45
2019-04-14T13:22:36.110Z,12.05
2019-04-14T13:25:12.157Z,11.53
2019-04-14T13:27:48.724Z,12.20
2019-04-14T13:30:26.123Z,12.37
2019-04-14T13:33:02.079Z,12.88
2019-04-14T13:35:38.124Z,12.23
2019-04-14T13:38:14.089Z,11.55
2019-04-14T13:40:49.945Z,11.90
2019-04-14T13:43:25.797Z,10.85
2019-04-14T13:46:01.651Z,12.23
2019-04-14T13:48:37.493Z,12.47
2019-04-14T13:51:13.350Z,12.47
2019-04-14T13:53:49.203Z,12.80
2019-04-14T13:56:25.167Z,11.83
2019-04-14T13:59:02.138Z,12.40
2019-04-14T14:01:38.094Z,13.30
2019-04-14T14:04:13.957Z,11.18
2019-04-14T14:06:49.798Z,12.10
2019-04-14T14:09:25.920Z,11.73
2019-04-14T14:12:19.515Z,12.13
2019-04-14T14:15:14.986Z,13.10
2019-04-14T14:18:08.488Z,12.07
2019-04-14T14:21:02.069Z,12.37
2019-04-14T14:23:45.513Z,12.58
2019-04-14T14:26:31.638Z,11.80
2019-04-14T14:29:08.460Z,12.55
2019-04-14T14:31:44.506Z,11.35
2019-04-14T14:34:20.392Z,10.95
2019-04-14T14:36:56.184Z,11.18
2019-04-14T14:39:31.985Z,11.30
2019-04-14T14:42:07.719Z,10.93
2019-04-14T14:44:47.901Z,10.63
2019-04-14T14:47:27.986Z,11.88
2019-04-14T14:50:08.434Z,11.54
2019-04-14T14:52:44.167Z,12.37
2019-04-14T14:55:19.930Z,11.50
2019-04-14T14:57:55.701Z,12.10
2019-04-14T15:00:34.814Z,12.65
2019-04-14T15:03:10.678Z,11.55
2019-04-14T15:05:46.505Z,12.93
2019-04-14T15:08:22.443Z,13.03
2019-04-14T15:10:58.240Z,12.37
2019-04-14T15:13:34.061Z,11.65
2019-04-14T15:16:09.918Z,11.63
2019-04-14T15:18:45.701Z,12.15
2019-04-14T15:21:21.546Z,12.28
2019-04-14T15:23:57.573Z,12.65
2019-04-14T15:26:33.846Z,11.68
2019-04-14T15:29:09.606Z,11.68
2019-04-14T15:31:45.450Z,11.38
2019-04-14T15:34:21.318Z,11.43
2019-04-14T15:36:57.119Z,11.40
2019-04-14T15:39:32.885Z,10.23
2019-04-14T15:42:08.656Z,10.75
2019-04-14T15:44:44.397Z,11.15
2019-04-14T15:47:20.365Z,11.73
2019-04-14T15:49:56.128Z,11.30
2019-04-14T15:52:31.921Z,10.78
2019-04-14T15:55:07.785Z,10.30
2019-04-14T15:57:45.157Z,10.10
2019-04-14T16:00:28.585Z,10.93
2019-04-14T16:03:21.929Z,10.88
2019-04-14T16:06:15.357Z,10.50
2019-04-14T16:09:02.121Z,11.85
2019-04-14T16:11:50.365Z,10.18
2019-04-14T16:14:30.729Z,10.75
2019-04-14T16:17:14.141Z,10.55
2019-04-14T16:19:57.677Z,10.25
2019-04-14T16:22:33.605Z,10.53
2019-04-14T16:25:09.864Z,10.55
2019-04-14T16:27:59.583Z,11.45
2019-04-14T16:30:52.872Z,10.82
2019-04-14T16:33:30.210Z,10.58
2019-04-14T16:36:06.812Z,10.78
2019-04-14T16:38:42.714Z,9.85
2019-04-14T16:41:20.272Z,10.25
2019-04-14T16:43:56.290Z,9.38
2019-04-14T16:46:32.103Z,10.82
2019-04-14T16:49:08.041Z,11.53
2019-04-14T16:51:51.366Z,12.33
2019-04-14T16:54:31.776Z,12.30
2019-04-14T16:57:25.371Z,10.60
2019-04-14T17:00:01.211Z,10.38
2019-04-14T17:02:38.073Z,9.33
2019-04-14T17:05:13.933Z,11.08
2019-04-14T17:07:49.852Z,8.93
2019-04-14T17:10:25.626Z,8.60
2019-04-14T17:13:01.439Z,8.75
2019-04-14T17:15:55.124Z,8.93
2019-04-14T17:18:41.313Z,9.08
2019-04-14T17:21:33.458Z,9.25
2019-04-14T17:24:16.770Z,8.55
2019-04-14T17:26:52.991Z,9.08
2019-04-14T17:29:42.442Z,8.15
2019-04-14T17:32:34.927Z,8.38
2019-04-14T17:35:18.371Z,8.73
2019-04-14T17:38:04.830Z,9.28
2019-04-14T17:40:45.140Z,9.35
2019-04-14T17:43:22.596Z,8.65
2019-04-14T17:46:02.689Z,9.60
2019-04-14T17:48:55.017Z,8.50
2019-04-14T17:51:38.067Z,8.65
2019-04-14T17:54:28.601Z,8.58
2019-04-14T17:57:13.677Z,7.70
2019-04-14T17:59:51.089Z,7.28
2019-04-14T18:02:31.582Z,7.87
2019-04-14T18:05:14.958Z,8.40
2019-04-14T18:07:52.757Z,7.70
2019-04-14T18:10:33.352Z,8.03
2019-04-14T18:13:30.099Z,8.78
2019-04-14T18:16:10.245Z,9.03
2019-04-14T18:21:39.981Z,9.43
2019-04-14T18:24:16.041Z,9.63
2019-04-14T18:26:51.900Z,9.70
2019-04-14T18:29:29.278Z,9.78
2019-04-14T18:32:06.679Z,10.55
2019-04-14T18:34:47.039Z,8.98
2019-04-14T18:37:24.539Z,8.80
2019-04-14T18:40:12.254Z,8.73
2019-04-14T18:42:50.169Z,8.23
2019-04-14T18:45:30.236Z,8.65
2019-04-14T18:48:08.229Z,8.75
2019-04-14T18:51:01.534Z,8.35
2019-04-14T18:53:50.712Z,9.90
2019-04-14T18:56:40.188Z,8.65
2019-04-14T18:59:23.545Z,8.50
2019-04-14T19:02:00.443Z,8.50
2019-04-14T19:04:37.199Z,8.90
2019-04-14T19:07:13.054Z,9.43
2019-04-14T19:09:48.917Z,10.08
2019-04-14T19:12:35.409Z,10.05
2019-04-14T19:15:22.537Z,9.25
2019-04-14T19:18:15.358Z,9.38
2019-04-14T19:20:52.782Z,8.03
2019-04-14T19:23:28.625Z,8.70
2019-04-14T19:26:04.683Z,8.55
2019-04-14T19:28:40.537Z,7.80
2019-04-14T19:31:16.391Z,8.50
2019-04-14T19:33:52.253Z,8.88
2019-04-14T19:36:28.211Z,8.58
2019-04-14T19:39:07.333Z,7.80
2019-04-14T19:41:43.405Z,9.75
2019-04-14T19:44:19.256Z,8.88
2019-04-14T19:46:55.157Z,10.95
2019-04-14T19:49:30.953Z,10.30
2019-04-14T19:52:06.811Z,11.08
2019-04-14T19:54:42.661Z,10.95
2019-04-14T19:57:18.535Z,12.43
2019-04-14T19:59:55.506Z,10.95
2019-04-14T20:02:31.360Z,11.08
2019-04-14T20:05:07.920Z,11.25
2019-04-14T20:07:43.898Z,10.85
2019-04-14T20:10:19.832Z,11.90
2019-04-14T20:12:55.799Z,19.15
2019-04-14T20:15:33.180Z,11.43
2019-04-14T20:18:10.681Z,15.70
2019-04-14T20:20:50.843Z,10.28
2019-04-14T20:23:31.801Z,13.93
2019-04-14T20:26:25.684Z,11.65
2019-04-14T20:29:12.386Z,10.48
2019-04-14T20:31:49.887Z,10.20
2019-04-14T20:34:25.732Z,9.35
2019-04-14T20:37:01.932Z,10.80
2019-04-14T20:39:37.861Z,12.20
2019-04-14T20:42:14.020Z,17.40
2019-04-14T20:44:49.864Z,16.02
2019-04-14T20:47:25.718Z,15.70
2019-04-14T20:50:01.881Z,15.48
2019-04-14T20:52:37.847Z,18.40
2019-04-14T20:55:13.997Z,17.42
2019-04-14T20:57:51.090Z,17.87
2019-04-14T21:00:27.051Z,12.47
2019-04-14T21:03:04.538Z,16.35
2019-04-14T21:05:41.928Z,23.62
2019-04-14T21:08:25.554Z,24.90
2019-04-14T21:11:03.018Z,31.77
2019-04-14T21:13:51.608Z,14.05
2019-04-14T21:16:40.253Z,11.12
2019-04-14T21:19:20.623Z,12.50
2019-04-14T21:22:10.096Z,11.70
2019-04-14T21:25:03.860Z,12.63
2019-04-14T21:27:56.610Z,15.08
2019-04-14T21:30:34.013Z,11.83
2019-04-14T21:33:14.154Z,13.05
2019-04-14T21:36:09.886Z,12.60
2019-04-14T21:39:03.456Z,14.20
2019-04-14T21:41:42.325Z,15.38
2019-04-14T21:44:18.121Z,17.80
2019-04-14T21:46:54.086Z,13.55
2019-04-14T21:49:29.875Z,20.48
2019-04-14T21:52:10.407Z,35.38
2019-04-14T21:54:46.758Z,23.60
2019-04-14T21:57:42.490Z,14.25
2019-04-14T22:00:22.954Z,11.53
2019-04-14T22:03:13.962Z,13.08
2019-04-14T22:06:08.034Z,14.00
2019-04-14T22:08:46.550Z,13.53
2019-04-14T22:11:27.113Z,13.62
2019-04-14T22:14:34.266Z,14.23
2019-04-14T22:17:23.913Z,15.32
2019-04-14T22:19:59.936Z,15.28
2019-04-14T22:22:35.789Z,16.00
2019-04-14T22:25:11.848Z,16.02
2019-04-14T22:27:47.718Z,16.80
2019-04-14T22:30:23.557Z,17.37
2019-04-14T22:32:59.412Z,17.07
2019-04-14T22:35:46.502Z,16.37
2019-04-14T22:38:50.252Z,16.40
2019-04-14T22:42:04.809Z,17.05
2019-04-14T22:44:40.682Z,15.65
2019-04-14T22:47:16.515Z,16.12
2019-04-14T22:49:52.370Z,14.38
2019-04-14T22:52:28.212Z,14.75
2019-04-14T22:55:05.201Z,16.15
2019-04-14T22:57:41.050Z,15.58
2019-04-14T23:00:27.154Z,14.03
2019-04-14T23:03:06.686Z,13.85
2019-04-14T23:05:46.947Z,14.00
2019-04-14T23:08:24.947Z,13.45
2019-04-14T23:11:11.549Z,13.98
2019-04-14T23:14:05.585Z,13.55
2019-04-14T23:16:59.405Z,14.15
2019-04-14T23:20:12.093Z,14.10
2019-04-14T23:29:55.562Z,13.18
2019-04-14T23:32:41.470Z,12.68
2019-04-14T23:35:47.803Z,12.47
2019-04-14T23:38:39.594Z,13.15
2019-04-14T23:41:44.458Z,13.32
2019-04-14T23:45:07.560Z,12.70
2019-04-14T23:51:19.817Z,12.47
2019-04-14T23:53:56.174Z,13.07
